sensor_id;sensor_type;location;lat;lon;timestamp;pressure;altitude;pressure_sealevel;temperature;humidity
7930;BME280;4010;42.698;23.124;2023-03-31T00:00:57;118349.16;;;-140.64;42.87
7930;BME280;4010;42.698;23.124;2023-03-31T00:03:28;118349.16;;;-140.64;43.21
7930;BME280;4010;42.698;23.124;2023-03-31T00:05:59;118349.16;;;-140.64;42.67
7930;BME280;4010;42.698;23.124;2023-03-31T00:08:27;118349.16;;;-140.64;42.88
7930;BME280;4010;42.698;23.124;2023-03-31T00:11:00;118349.16;;;-140.64;42.56
7930;BME280;4010;42.698;23.124;2023-03-31T00:13:27;118349.16;;;-140.64;42.89
7930;BME280;4010;42.698;23.124;2023-03-31T00:16:00;118349.16;;;-140.64;42.98
7930;BME280;4010;42.698;23.124;2023-03-31T00:18:28;118349.16;;;-140.64;42.54
7930;BME280;4010;42.698;23.124;2023-03-31T00:21:04;118349.16;;;-140.64;42.83
7930;BME280;4010;42.698;23.124;2023-03-31T00:23:32;118349.16;;;-140.64;42.92
7930;BME280;4010;42.698;23.124;2023-03-31T00:25:58;118349.16;;;-140.64;42.95
7930;BME280;4010;42.698;23.124;2023-03-31T00:28:25;118349.16;;;-140.64;42.88
7930;BME280;4010;42.698;23.124;2023-03-31T00:30:52;118349.16;;;-140.64;42.93
7930;BME280;4010;42.698;23.124;2023-03-31T00:33:20;118349.16;;;-140.64;43.00
7930;BME280;4010;42.698;23.124;2023-03-31T00:35:50;118349.16;;;-140.64;43.27
7930;BME280;4010;42.698;23.124;2023-03-31T00:38:17;118349.16;;;-140.64;42.80
7930;BME280;4010;42.698;23.124;2023-03-31T00:40:46;118349.16;;;-140.64;43.27
7930;BME280;4010;42.698;23.124;2023-03-31T00:43:26;118349.16;;;-140.64;42.89
7930;BME280;4010;42.698;23.124;2023-03-31T00:45:54;118349.16;;;-140.64;43.13
7930;BME280;4010;42.698;23.124;2023-03-31T00:48:23;118349.16;;;-140.64;43.23
7930;BME280;4010;42.698;23.124;2023-03-31T00:50:52;118349.16;;;-140.64;43.28
7930;BME280;4010;42.698;23.124;2023-03-31T00:53:23;118349.16;;;-140.64;43.67
7930;BME280;4010;42.698;23.124;2023-03-31T00:55:54;118349.16;;;-140.64;43.30
7930;BME280;4010;42.698;23.124;2023-03-31T00:58:23;118349.16;;;-140.64;43.51
7930;BME280;4010;42.698;23.124;2023-03-31T01:00:54;118349.16;;;-140.64;43.44
7930;BME280;4010;42.698;23.124;2023-03-31T01:03:24;118349.16;;;-140.64;42.89
7930;BME280;4010;42.698;23.124;2023-03-31T01:05:54;118349.16;;;-140.64;43.27
7930;BME280;4010;42.698;23.124;2023-03-31T01:08:24;118349.16;;;-140.64;43.63
7930;BME280;4010;42.698;23.124;2023-03-31T01:10:54;118349.16;;;-140.64;43.30
7930;BME280;4010;42.698;23.124;2023-03-31T01:13:22;118349.16;;;-140.64;43.23
7930;BME280;4010;42.698;23.124;2023-03-31T01:15:50;118349.16;;;-140.64;43.16
7930;BME280;4010;42.698;23.124;2023-03-31T01:18:17;118349.16;;;-140.64;43.19
7930;BME280;4010;42.698;23.124;2023-03-31T01:21:01;118349.16;;;-140.64;43.20
7930;BME280;4010;42.698;23.124;2023-03-31T01:26:42;118349.16;;;-140.64;43.76
7930;BME280;4010;42.698;23.124;2023-03-31T01:29:32;118349.16;;;-140.64;43.82
7930;BME280;4010;42.698;23.124;2023-03-31T01:32:31;118349.16;;;-140.64;43.56
7930;BME280;4010;42.698;23.124;2023-03-31T01:35:34;118349.16;;;-140.64;44.00
7930;BME280;4010;42.698;23.124;2023-03-31T01:38:41;118349.16;;;-140.64;44.50
7930;BME280;4010;42.698;23.124;2023-03-31T01:41:23;118349.16;;;-140.64;44.45
7930;BME280;4010;42.698;23.124;2023-03-31T01:43:59;118349.16;;;-140.64;44.39
7930;BME280;4010;42.698;23.124;2023-03-31T01:46:31;118349.16;;;-140.64;44.91
7930;BME280;4010;42.698;23.124;2023-03-31T01:49:06;118349.16;;;-140.64;45.28
7930;BME280;4010;42.698;23.124;2023-03-31T01:51:44;118349.16;;;-140.64;45.43
7930;BME280;4010;42.698;23.124;2023-03-31T01:54:18;118349.16;;;-140.64;45.26
7930;BME280;4010;42.698;23.124;2023-03-31T01:56:48;118349.16;;;-140.64;45.53
7930;BME280;4010;42.698;23.124;2023-03-31T01:59:22;118349.16;;;-140.64;46.53
7930;BME280;4010;42.698;23.124;2023-03-31T02:01:55;118349.16;;;-140.64;47.30
7930;BME280;4010;42.698;23.124;2023-03-31T02:04:27;118349.16;;;-140.64;48.21
7930;BME280;4010;42.698;23.124;2023-03-31T02:06:58;118349.16;;;-140.64;50.27
7930;BME280;4010;42.698;23.124;2023-03-31T02:09:30;118349.16;;;-140.64;52.63
7930;BME280;4010;42.698;23.124;2023-03-31T02:12:04;118349.16;;;-140.64;53.54
7930;BME280;4010;42.698;23.124;2023-03-31T02:14:34;118349.16;;;-140.64;55.45
7930;BME280;4010;42.698;23.124;2023-03-31T02:17:04;118349.16;;;-140.64;57.57
7930;BME280;4010;42.698;23.124;2023-03-31T02:19:34;118349.16;;;-140.64;59.00
7930;BME280;4010;42.698;23.124;2023-03-31T02:22:05;118349.16;;;-140.64;61.83
7930;BME280;4010;42.698;23.124;2023-03-31T02:24:35;118349.16;;;-140.64;64.76
7930;BME280;4010;42.698;23.124;2023-03-31T02:27:07;118349.16;;;-140.64;68.27
7930;BME280;4010;42.698;23.124;2023-03-31T02:29:35;118349.16;;;-140.64;73.79
7930;BME280;4010;42.698;23.124;2023-03-31T02:32:10;118349.16;;;-140.64;76.02
7930;BME280;4010;42.698;23.124;2023-03-31T02:34:39;118349.16;;;-140.64;78.56
7930;BME280;4010;42.698;23.124;2023-03-31T02:37:05;118349.16;;;-140.64;79.77
7930;BME280;4010;42.698;23.124;2023-03-31T02:39:34;118349.16;;;-140.64;82.17
7930;BME280;4010;42.698;23.124;2023-03-31T02:42:03;118349.16;;;-140.64;84.08
7930;BME280;4010;42.698;23.124;2023-03-31T02:44:32;118349.16;;;-140.64;84.33
7930;BME280;4010;42.698;23.124;2023-03-31T02:46:59;118349.16;;;-140.64;86.03
7930;BME280;4010;42.698;23.124;2023-03-31T02:49:26;118349.16;;;-140.64;86.69
7930;BME280;4010;42.698;23.124;2023-03-31T02:52:33;118349.16;;;-140.64;86.59
7930;BME280;4010;42.698;23.124;2023-03-31T02:55:23;118349.16;;;-140.64;87.75
7930;BME280;4010;42.698;23.124;2023-03-31T02:58:08;118349.16;;;-140.64;87.15
7930;BME280;4010;42.698;23.124;2023-03-31T03:01:08;118349.16;;;-140.64;87.34
7930;BME280;4010;42.698;23.124;2023-03-31T03:03:42;118349.16;;;-140.64;87.53
7930;BME280;4010;42.698;23.124;2023-03-31T03:06:19;118349.16;;;-140.64;86.62
7930;BME280;4010;42.698;23.124;2023-03-31T03:09:03;118349.16;;;-140.64;86.89
7930;BME280;4010;42.698;23.124;2023-03-31T03:11:36;118349.16;;;-140.64;86.63
7930;BME280;4010;42.698;23.124;2023-03-31T03:14:13;118349.16;;;-140.64;84.83
7930;BME280;4010;42.698;23.124;2023-03-31T03:16:44;118349.16;;;-140.64;83.78
7930;BME280;4010;42.698;23.124;2023-03-31T03:19:18;118349.16;;;-140.64;83.88
7930;BME280;4010;42.698;23.124;2023-03-31T03:21:45;118349.16;;;-140.64;82.06
7930;BME280;4010;42.698;23.124;2023-03-31T03:24:13;118349.16;;;-140.64;80.62
7930;BME280;4010;42.698;23.124;2023-03-31T03:26:41;118349.16;;;-140.64;80.13
7930;BME280;4010;42.698;23.124;2023-03-31T03:29:10;118349.16;;;-140.64;79.22
7930;BME280;4010;42.698;23.124;2023-03-31T03:31:37;118349.16;;;-140.64;77.48
7930;BME280;4010;42.698;23.124;2023-03-31T03:34:04;118349.16;;;-140.64;76.47
7930;BME280;4010;42.698;23.124;2023-03-31T03:36:31;118349.16;;;-140.64;76.21
7930;BME280;4010;42.698;23.124;2023-03-31T03:38:58;118349.16;;;-140.64;75.45
7930;BME280;4010;42.698;23.124;2023-03-31T03:41:25;118349.16;;;-140.64;75.12
7930;BME280;4010;42.698;23.124;2023-03-31T03:43:51;118349.16;;;-140.64;76.12
7930;BME280;4010;42.698;23.124;2023-03-31T03:46:19;118349.16;;;-140.64;75.53
7930;BME280;4010;42.698;23.124;2023-03-31T03:48:46;118349.16;;;-140.64;75.71
7930;BME280;4010;42.698;23.124;2023-03-31T03:51:13;118349.16;;;-140.64;75.34
7930;BME280;4010;42.698;23.124;2023-03-31T03:53:40;118349.16;;;-140.64;74.75
7930;BME280;4010;42.698;23.124;2023-03-31T03:56:06;118349.16;;;-140.64;74.17
7930;BME280;4010;42.698;23.124;2023-03-31T03:58:33;118349.16;;;-140.64;74.01
7930;BME280;4010;42.698;23.124;2023-03-31T04:01:00;118349.16;;;-140.64;72.97
7930;BME280;4010;42.698;23.124;2023-03-31T04:03:28;118349.16;;;-140.64;72.40
7930;BME280;4010;42.698;23.124;2023-03-31T04:05:55;118349.16;;;-140.64;71.62
7930;BME280;4010;42.698;23.124;2023-03-31T04:08:22;118349.16;;;-140.64;70.60
7930;BME280;4010;42.698;23.124;2023-03-31T04:10:49;118349.16;;;-140.64;70.66
7930;BME280;4010;42.698;23.124;2023-03-31T04:13:16;118349.16;;;-140.64;70.49
7930;BME280;4010;42.698;23.124;2023-03-31T04:15:44;118349.16;;;-140.64;70.80
7930;BME280;4010;42.698;23.124;2023-03-31T04:18:11;118349.16;;;-140.64;70.79
7930;BME280;4010;42.698;23.124;2023-03-31T04:20:44;118349.16;;;-140.64;69.94
7930;BME280;4010;42.698;23.124;2023-03-31T04:23:19;118349.16;;;-140.64;70.84
7930;BME280;4010;42.698;23.124;2023-03-31T04:25:49;118349.16;;;-140.64;71.21
7930;BME280;4010;42.698;23.124;2023-03-31T04:28:15;118349.16;;;-140.64;71.62
7930;BME280;4010;42.698;23.124;2023-03-31T04:30:42;118349.16;;;-140.64;72.22
7930;BME280;4010;42.698;23.124;2023-03-31T04:33:09;118349.16;;;-140.64;72.38
7930;BME280;4010;42.698;23.124;2023-03-31T04:35:39;118349.16;;;-140.64;71.80
7930;BME280;4010;42.698;23.124;2023-03-31T04:38:15;118349.16;;;-140.64;71.50
7930;BME280;4010;42.698;23.124;2023-03-31T04:40:44;118349.16;;;-140.64;71.25
7930;BME280;4010;42.698;23.124;2023-03-31T04:43:11;118349.16;;;-140.64;71.76
7930;BME280;4010;42.698;23.124;2023-03-31T04:45:38;118349.16;;;-140.64;71.74
7930;BME280;4010;42.698;23.124;2023-03-31T04:48:05;118349.16;;;-140.64;72.42
7930;BME280;4010;42.698;23.124;2023-03-31T04:50:32;118349.16;;;-140.64;72.11
7930;BME280;4010;42.698;23.124;2023-03-31T04:52:58;118349.16;;;-140.64;71.84
7930;BME280;4010;42.698;23.124;2023-03-31T04:55:26;118349.16;;;-140.64;71.56
7930;BME280;4010;42.698;23.124;2023-03-31T04:57:53;118349.16;;;-140.64;71.61
7930;BME280;4010;42.698;23.124;2023-03-31T05:00:21;118349.16;;;-140.64;70.35
7930;BME280;4010;42.698;23.124;2023-03-31T05:02:48;118349.16;;;-140.64;70.96
7930;BME280;4010;42.698;23.124;2023-03-31T05:05:16;118349.16;;;-140.64;70.67
7930;BME280;4010;42.698;23.124;2023-03-31T05:07:42;118349.16;;;-140.64;71.50
7930;BME280;4010;42.698;23.124;2023-03-31T05:10:10;118349.16;;;-140.64;70.70
7930;BME280;4010;42.698;23.124;2023-03-31T05:12:38;118349.16;;;-140.64;71.09
7930;BME280;4010;42.698;23.124;2023-03-31T05:15:06;118349.16;;;-140.64;70.53
7930;BME280;4010;42.698;23.124;2023-03-31T05:17:34;118349.16;;;-140.64;70.13
7930;BME280;4010;42.698;23.124;2023-03-31T05:20:01;118349.16;;;-140.64;70.10
7930;BME280;4010;42.698;23.124;2023-03-31T05:22:33;118349.16;;;-140.64;69.39
7930;BME280;4010;42.698;23.124;2023-03-31T05:25:00;118349.16;;;-140.64;68.51
7930;BME280;4010;42.698;23.124;2023-03-31T05:27:27;118349.16;;;-140.64;68.54
7930;BME280;4010;42.698;23.124;2023-03-31T05:29:55;118349.16;;;-140.64;67.87
7930;BME280;4010;42.698;23.124;2023-03-31T05:32:22;118349.16;;;-140.64;67.97
7930;BME280;4010;42.698;23.124;2023-03-31T05:34:49;118349.16;;;-140.64;68.54
7930;BME280;4010;42.698;23.124;2023-03-31T05:37:17;118349.16;;;-140.64;67.67
7930;BME280;4010;42.698;23.124;2023-03-31T05:39:43;118349.16;;;-140.64;67.10
7930;BME280;4010;42.698;23.124;2023-03-31T05:42:10;118349.16;;;-140.64;67.53
7930;BME280;4010;42.698;23.124;2023-03-31T05:44:37;118349.16;;;-140.64;66.54
7930;BME280;4010;42.698;23.124;2023-03-31T05:47:05;118349.16;;;-140.64;65.00
7930;BME280;4010;42.698;23.124;2023-03-31T05:49:32;118349.16;;;-140.64;65.47
7930;BME280;4010;42.698;23.124;2023-03-31T05:51:59;118349.16;;;-140.64;64.90
7930;BME280;4010;42.698;23.124;2023-03-31T05:54:26;118349.16;;;-140.64;64.16
7930;BME280;4010;42.698;23.124;2023-03-31T05:56:53;118349.16;;;-140.64;64.15
7930;BME280;4010;42.698;23.124;2023-03-31T05:59:20;118349.16;;;-140.64;64.90
7930;BME280;4010;42.698;23.124;2023-03-31T06:01:46;118349.16;;;-140.64;64.40
7930;BME280;4010;42.698;23.124;2023-03-31T06:04:14;118349.16;;;-140.64;64.46
7930;BME280;4010;42.698;23.124;2023-03-31T06:06:41;118349.16;;;-140.64;64.23
7930;BME280;4010;42.698;23.124;2023-03-31T06:09:09;118349.16;;;-140.64;64.72
7930;BME280;4010;42.698;23.124;2023-03-31T06:11:37;118349.16;;;-140.64;65.45
7930;BME280;4010;42.698;23.124;2023-03-31T06:14:04;118349.16;;;-140.64;64.35
7930;BME280;4010;42.698;23.124;2023-03-31T06:16:31;118349.16;;;-140.64;64.47
7930;BME280;4010;42.698;23.124;2023-03-31T06:18:57;118349.16;;;-140.64;64.03
7930;BME280;4010;42.698;23.124;2023-03-31T06:21:26;118349.16;;;-140.64;62.67
7930;BME280;4010;42.698;23.124;2023-03-31T06:23:52;118349.16;;;-140.64;63.09
7930;BME280;4010;42.698;23.124;2023-03-31T06:26:22;118349.16;;;-140.64;63.02
7930;BME280;4010;42.698;23.124;2023-03-31T06:28:50;118349.16;;;-140.64;64.13
7930;BME280;4010;42.698;23.124;2023-03-31T06:31:19;118349.16;;;-140.64;63.18
7930;BME280;4010;42.698;23.124;2023-03-31T06:33:46;118349.16;;;-140.64;63.10
7930;BME280;4010;42.698;23.124;2023-03-31T06:36:14;118349.16;;;-140.64;63.35
7930;BME280;4010;42.698;23.124;2023-03-31T06:38:44;118349.16;;;-140.64;62.34
7930;BME280;4010;42.698;23.124;2023-03-31T06:41:12;118349.16;;;-140.64;61.41
7930;BME280;4010;42.698;23.124;2023-03-31T06:43:39;118349.16;;;-140.64;61.47
7930;BME280;4010;42.698;23.124;2023-03-31T06:46:06;118349.16;;;-140.64;60.86
7930;BME280;4010;42.698;23.124;2023-03-31T06:48:33;118349.16;;;-140.64;61.16
7930;BME280;4010;42.698;23.124;2023-03-31T06:51:01;118349.16;;;-140.64;60.28
7930;BME280;4010;42.698;23.124;2023-03-31T06:53:29;118349.16;;;-140.64;60.79
7930;BME280;4010;42.698;23.124;2023-03-31T06:55:57;118349.16;;;-140.64;60.03
7930;BME280;4010;42.698;23.124;2023-03-31T06:58:24;118349.16;;;-140.64;59.43
7930;BME280;4010;42.698;23.124;2023-03-31T07:00:51;118349.16;;;-140.64;59.00
7930;BME280;4010;42.698;23.124;2023-03-31T07:03:18;118349.16;;;-140.64;58.99
7930;BME280;4010;42.698;23.124;2023-03-31T07:05:47;118349.16;;;-140.64;58.67
7930;BME280;4010;42.698;23.124;2023-03-31T07:08:15;118349.16;;;-140.64;57.93
7930;BME280;4010;42.698;23.124;2023-03-31T07:10:43;118349.16;;;-140.64;56.61
7930;BME280;4010;42.698;23.124;2023-03-31T07:13:14;118349.16;;;-140.64;57.52
7930;BME280;4010;42.698;23.124;2023-03-31T07:15:41;118349.16;;;-140.64;57.59
7930;BME280;4010;42.698;23.124;2023-03-31T07:18:08;118349.16;;;-140.64;57.59
7930;BME280;4010;42.698;23.124;2023-03-31T07:20:37;118349.16;;;-140.64;56.82
7930;BME280;4010;42.698;23.124;2023-03-31T07:23:04;118349.16;;;-140.64;55.71
7930;BME280;4010;42.698;23.124;2023-03-31T07:25:32;118349.16;;;-140.64;55.87
7930;BME280;4010;42.698;23.124;2023-03-31T07:27:59;118349.16;;;-140.64;55.66
7930;BME280;4010;42.698;23.124;2023-03-31T07:30:27;118349.16;;;-140.64;54.01
7930;BME280;4010;42.698;23.124;2023-03-31T07:32:54;118349.16;;;-140.64;54.55
7930;BME280;4010;42.698;23.124;2023-03-31T07:35:21;118349.16;;;-140.64;54.16
7930;BME280;4010;42.698;23.124;2023-03-31T07:37:49;118349.16;;;-140.64;54.21
7930;BME280;4010;42.698;23.124;2023-03-31T07:40:18;118349.16;;;-140.64;53.01
7930;BME280;4010;42.698;23.124;2023-03-31T07:42:46;118349.16;;;-140.64;53.32
7930;BME280;4010;42.698;23.124;2023-03-31T07:45:14;118349.16;;;-140.64;52.62
7930;BME280;4010;42.698;23.124;2023-03-31T07:47:44;118349.16;;;-140.64;53.21
7930;BME280;4010;42.698;23.124;2023-03-31T07:50:12;118349.16;;;-140.64;53.20
7930;BME280;4010;42.698;23.124;2023-03-31T07:52:39;118349.16;;;-140.64;51.86
7930;BME280;4010;42.698;23.124;2023-03-31T07:55:06;118349.16;;;-140.64;53.16
7930;BME280;4010;42.698;23.124;2023-03-31T07:57:34;118349.16;;;-140.64;52.83
7930;BME280;4010;42.698;23.124;2023-03-31T08:00:01;118349.16;;;-140.64;51.91
7930;BME280;4010;42.698;23.124;2023-03-31T08:02:31;118349.16;;;-140.64;53.95
7930;BME280;4010;42.698;23.124;2023-03-31T08:05:00;118349.16;;;-140.64;51.28
7930;BME280;4010;42.698;23.124;2023-03-31T08:07:27;118349.16;;;-140.64;50.23
7930;BME280;4010;42.698;23.124;2023-03-31T08:09:55;118349.16;;;-140.64;51.23
7930;BME280;4010;42.698;23.124;2023-03-31T08:12:22;118349.16;;;-140.64;50.56
7930;BME280;4010;42.698;23.124;2023-03-31T08:14:49;118349.16;;;-140.64;51.13
7930;BME280;4010;42.698;23.124;2023-03-31T08:17:15;118349.16;;;-140.64;50.49
7930;BME280;4010;42.698;23.124;2023-03-31T08:19:42;118349.16;;;-140.64;50.53
7930;BME280;4010;42.698;23.124;2023-03-31T08:22:10;118349.16;;;-140.64;49.57
7930;BME280;4010;42.698;23.124;2023-03-31T08:24:37;118349.16;;;-140.64;49.33
7930;BME280;4010;42.698;23.124;2023-03-31T08:27:03;118349.16;;;-140.64;51.26
7930;BME280;4010;42.698;23.124;2023-03-31T08:29:30;118349.16;;;-140.64;50.67
7930;BME280;4010;42.698;23.124;2023-03-31T08:31:57;118349.16;;;-140.64;51.32
7930;BME280;4010;42.698;23.124;2023-03-31T08:34:24;118349.16;;;-140.64;50.86
7930;BME280;4010;42.698;23.124;2023-03-31T08:36:51;118349.16;;;-140.64;53.39
7930;BME280;4010;42.698;23.124;2023-03-31T08:39:19;118349.16;;;-140.64;50.65
7930;BME280;4010;42.698;23.124;2023-03-31T08:41:53;118349.16;;;-140.64;49.73
7930;BME280;4010;42.698;23.124;2023-03-31T08:44:23;118349.16;;;-140.64;49.45
7930;BME280;4010;42.698;23.124;2023-03-31T08:46:53;118349.16;;;-140.64;49.41
7930;BME280;4010;42.698;23.124;2023-03-31T08:49:22;118349.16;;;-140.64;46.23
7930;BME280;4010;42.698;23.124;2023-03-31T08:51:52;118349.16;;;-140.64;46.27
7930;BME280;4010;42.698;23.124;2023-03-31T08:54:28;118349.16;;;-140.64;44.17
7930;BME280;4010;42.698;23.124;2023-03-31T08:56:56;118349.16;;;-140.64;43.28
7930;BME280;4010;42.698;23.124;2023-03-31T08:59:26;118349.16;;;-140.64;45.04
7930;BME280;4010;42.698;23.124;2023-03-31T09:02:02;118349.16;;;-140.64;46.16
7930;BME280;4010;42.698;23.124;2023-03-31T09:05:10;118349.16;;;-140.64;45.49
7930;BME280;4010;42.698;23.124;2023-03-31T09:07:48;118349.16;;;-140.64;46.30
7930;BME280;4010;42.698;23.124;2023-03-31T09:10:30;118349.16;;;-140.64;43.56
7930;BME280;4010;42.698;23.124;2023-03-31T09:13:03;118349.16;;;-140.64;45.04
7930;BME280;4010;42.698;23.124;2023-03-31T09:15:39;118349.16;;;-140.64;43.32
7930;BME280;4010;42.698;23.124;2023-03-31T09:18:14;118349.16;;;-140.64;44.70
7930;BME280;4010;42.698;23.124;2023-03-31T09:20:45;118349.16;;;-140.64;46.41
7930;BME280;4010;42.698;23.124;2023-03-31T09:23:22;118349.16;;;-140.64;44.60
7930;BME280;4010;42.698;23.124;2023-03-31T09:25:53;118349.16;;;-140.64;43.59
7930;BME280;4010;42.698;23.124;2023-03-31T09:28:24;118349.16;;;-140.64;45.98
7930;BME280;4010;42.698;23.124;2023-03-31T09:30:53;118349.16;;;-140.64;46.04
7930;BME280;4010;42.698;23.124;2023-03-31T09:33:24;118349.16;;;-140.64;45.00
7930;BME280;4010;42.698;23.124;2023-03-31T09:35:56;118349.16;;;-140.64;45.69
7930;BME280;4010;42.698;23.124;2023-03-31T09:38:23;118349.16;;;-140.64;44.57
7930;BME280;4010;42.698;23.124;2023-03-31T09:40:55;118349.16;;;-140.64;45.51
7930;BME280;4010;42.698;23.124;2023-03-31T09:43:23;118349.16;;;-140.64;43.34
7930;BME280;4010;42.698;23.124;2023-03-31T09:45:52;118349.16;;;-140.64;43.59
7930;BME280;4010;42.698;23.124;2023-03-31T09:48:22;118349.16;;;-140.64;44.26
7930;BME280;4010;42.698;23.124;2023-03-31T09:50:51;118349.16;;;-140.64;42.67
7930;BME280;4010;42.698;23.124;2023-03-31T09:53:26;118349.16;;;-140.64;42.95
7930;BME280;4010;42.698;23.124;2023-03-31T09:55:59;118349.16;;;-140.64;43.67
7930;BME280;4010;42.698;23.124;2023-03-31T09:58:26;118349.16;;;-140.64;43.72
7930;BME280;4010;42.698;23.124;2023-03-31T10:01:00;118349.16;;;-140.64;44.63
7930;BME280;4010;42.698;23.124;2023-03-31T10:03:29;118349.16;;;-140.64;43.85
7930;BME280;4010;42.698;23.124;2023-03-31T10:06:01;118349.16;;;-140.64;43.08
7930;BME280;4010;42.698;23.124;2023-03-31T10:08:30;118349.16;;;-140.64;45.08
7930;BME280;4010;42.698;23.124;2023-03-31T10:11:09;118349.16;;;-140.64;45.31
7930;BME280;4010;42.698;23.124;2023-03-31T10:13:43;118349.16;;;-140.64;45.67
7930;BME280;4010;42.698;23.124;2023-03-31T10:16:12;118349.16;;;-140.64;44.76
7930;BME280;4010;42.698;23.124;2023-03-31T10:18:41;118349.16;;;-140.64;43.25
7930;BME280;4010;42.698;23.124;2023-03-31T10:21:19;118349.16;;;-140.64;45.11
7930;BME280;4010;42.698;23.124;2023-03-31T10:23:47;118349.16;;;-140.64;44.90
7930;BME280;4010;42.698;23.124;2023-03-31T10:26:17;118349.16;;;-140.64;44.88
7930;BME280;4010;42.698;23.124;2023-03-31T10:28:47;118349.16;;;-140.64;44.34
7930;BME280;4010;42.698;23.124;2023-03-31T10:31:15;118349.16;;;-140.64;45.48
7930;BME280;4010;42.698;23.124;2023-03-31T10:33:44;118349.16;;;-140.64;44.35
7930;BME280;4010;42.698;23.124;2023-03-31T10:36:20;118349.16;;;-140.64;44.32
7930;BME280;4010;42.698;23.124;2023-03-31T10:38:49;118349.16;;;-140.64;45.13
7930;BME280;4010;42.698;23.124;2023-03-31T10:41:20;118349.16;;;-140.64;44.12
7930;BME280;4010;42.698;23.124;2023-03-31T10:43:49;118349.16;;;-140.64;44.84
7930;BME280;4010;42.698;23.124;2023-03-31T10:46:16;118349.16;;;-140.64;45.37
7930;BME280;4010;42.698;23.124;2023-03-31T10:48:43;118349.16;;;-140.64;44.42
7930;BME280;4010;42.698;23.124;2023-03-31T10:51:15;118349.16;;;-140.64;44.16
7930;BME280;4010;42.698;23.124;2023-03-31T10:53:43;118349.16;;;-140.64;44.09
7930;BME280;4010;42.698;23.124;2023-03-31T10:56:28;118349.16;;;-140.64;43.03
7930;BME280;4010;42.698;23.124;2023-03-31T10:59:10;118349.16;;;-140.64;43.35
7930;BME280;4010;42.698;23.124;2023-03-31T11:01:51;118349.16;;;-140.64;43.99
7930;BME280;4010;42.698;23.124;2023-03-31T11:04:52;118349.16;;;-140.64;42.98
7930;BME280;4010;42.698;23.124;2023-03-31T11:07:32;118349.16;;;-140.64;42.87
7930;BME280;4010;42.698;23.124;2023-03-31T11:10:27;118349.16;;;-140.64;41.94
7930;BME280;4010;42.698;23.124;2023-03-31T11:13:00;118349.16;;;-140.64;42.31
7930;BME280;4010;42.698;23.124;2023-03-31T11:15:35;118349.16;;;-140.64;41.22
7930;BME280;4010;42.698;23.124;2023-03-31T11:18:18;118349.16;;;-140.64;42.27
7930;BME280;4010;42.698;23.124;2023-03-31T11:20:58;118349.16;;;-140.64;40.58
7930;BME280;4010;42.698;23.124;2023-03-31T11:23:36;118349.16;;;-140.64;41.46
7930;BME280;4010;42.698;23.124;2023-03-31T11:26:09;118349.16;;;-140.64;40.82
7930;BME280;4010;42.698;23.124;2023-03-31T11:28:54;118349.16;;;-140.64;40.65
7930;BME280;4010;42.698;23.124;2023-03-31T11:31:32;118349.16;;;-140.64;40.54
7930;BME280;4010;42.698;23.124;2023-03-31T11:34:26;118349.16;;;-140.64;40.04
7930;BME280;4010;42.698;23.124;2023-03-31T11:37:13;118349.16;;;-140.64;39.70
7930;BME280;4010;42.698;23.124;2023-03-31T11:39:55;118349.16;;;-140.64;40.83
7930;BME280;4010;42.698;23.124;2023-03-31T11:42:27;118349.16;;;-140.64;40.95
7930;BME280;4010;42.698;23.124;2023-03-31T11:44:59;118349.16;;;-140.64;40.60
7930;BME280;4010;42.698;23.124;2023-03-31T11:47:30;118349.16;;;-140.64;40.88
7930;BME280;4010;42.698;23.124;2023-03-31T11:50:03;118349.16;;;-140.64;41.47
7930;BME280;4010;42.698;23.124;2023-03-31T11:52:33;118349.16;;;-140.64;41.49
7930;BME280;4010;42.698;23.124;2023-03-31T11:55:05;118349.16;;;-140.64;41.20
7930;BME280;4010;42.698;23.124;2023-03-31T11:57:43;118349.16;;;-140.64;41.98
7930;BME280;4010;42.698;23.124;2023-03-31T12:00:16;118349.16;;;-140.64;41.45
7930;BME280;4010;42.698;23.124;2023-03-31T12:02:47;118349.16;;;-140.64;42.54
7930;BME280;4010;42.698;23.124;2023-03-31T12:05:17;118349.16;;;-140.64;42.40
7930;BME280;4010;42.698;23.124;2023-03-31T12:07:51;118349.16;;;-140.64;43.89
7930;BME280;4010;42.698;23.124;2023-03-31T12:10:28;118349.16;;;-140.64;43.07
7930;BME280;4010;42.698;23.124;2023-03-31T12:13:04;118349.16;;;-140.64;44.30
7930;BME280;4010;42.698;23.124;2023-03-31T12:15:47;118349.16;;;-140.64;43.22
7930;BME280;4010;42.698;23.124;2023-03-31T12:18:21;118349.16;;;-140.64;43.03
7930;BME280;4010;42.698;23.124;2023-03-31T12:20:53;118349.16;;;-140.64;43.61
7930;BME280;4010;42.698;23.124;2023-03-31T12:23:23;118349.16;;;-140.64;43.99
7930;BME280;4010;42.698;23.124;2023-03-31T12:25:54;118349.16;;;-140.64;44.39
7930;BME280;4010;42.698;23.124;2023-03-31T12:28:23;118349.16;;;-140.64;44.14
7930;BME280;4010;42.698;23.124;2023-03-31T12:30:54;118349.16;;;-140.64;44.25
7930;BME280;4010;42.698;23.124;2023-03-31T12:33:25;118349.16;;;-140.64;45.38
7930;BME280;4010;42.698;23.124;2023-03-31T12:36:14;118349.16;;;-140.64;44.50
7930;BME280;4010;42.698;23.124;2023-03-31T12:39:00;118349.16;;;-140.64;44.14
7930;BME280;4010;42.698;23.124;2023-03-31T12:41:39;118349.16;;;-140.64;43.11
7930;BME280;4010;42.698;23.124;2023-03-31T12:44:20;118349.16;;;-140.64;43.95
7930;BME280;4010;42.698;23.124;2023-03-31T12:47:13;118349.16;;;-140.64;44.74
7930;BME280;4010;42.698;23.124;2023-03-31T12:49:53;118349.16;;;-140.64;41.75
7930;BME280;4010;42.698;23.124;2023-03-31T12:52:33;118349.16;;;-140.64;42.46
7930;BME280;4010;42.698;23.124;2023-03-31T12:58:35;118349.16;;;-140.64;41.68
7930;BME280;4010;42.698;23.124;2023-03-31T13:01:08;118349.16;;;-140.64;41.20
7930;BME280;4010;42.698;23.124;2023-03-31T13:03:45;118349.16;;;-140.64;41.60
7930;BME280;4010;42.698;23.124;2023-03-31T13:06:48;118349.16;;;-140.64;40.46
7930;BME280;4010;42.698;23.124;2023-03-31T13:09:42;118349.16;;;-140.64;40.57